Time;durP1;ratioP1;P1;durP2;ratioP2;P2;SDS_P1;SDS_P2;PMS_P1;PMS_P2;Temp;Humidity;BMP_temperature;BMP_pressure;BME280_temperature;BME280_humidity;BME280_pressure;Samples;Min_cycle;Max_cycle;Signal;HPM_P1;HPM_P2
2022/05/05 00:00:09;;;;;;;3.37;1.67;;;;;;;7.03;39.88;101184.56;1807760;79;21159;-73
2022/05/05 00:02:36;;;;;;;3.12;1.77;;;;;;;6.99;39.93;101188.17;1807374;78;21102;-73
2022/05/05 00:05:05;;;;;;;3.95;2.00;;;;;;;6.96;39.95;101192.59;1807306;79;20959;-73
2022/05/05 00:07:32;;;;;;;4.42;2.10;;;;;;;6.95;40.09;101193.63;1802149;79;20955;-73
2022/05/05 00:14:23;;;;;;;4.30;1.80;;;;;;;6.92;40.20;101202.55;1807519;78;20975;-73
2022/05/05 00:15:14;;;;;;;3.80;2.10;;;;;;;6.85;40.42;101199.14;1807919;79;21754;-73
2022/05/05 00:17:41;;;;;;;5.75;2.33;;;;;;;6.80;40.54;101205.89;1806922;79;20959;-73
2022/05/05 00:20:10;;;;;;;4.42;2.20;;;;;;;6.78;40.51;101214.59;1807530;79;21047;-72
2022/05/05 00:22:37;;;;;;;5.60;2.00;;;;;;;6.75;40.63;101216.36;1807685;79;20990;-73
2022/05/05 00:25:04;;;;;;;4.17;2.20;;;;;;;6.71;40.65;101217.82;1807986;78;21030;-73
2022/05/05 00:27:32;;;;;;;5.65;2.30;;;;;;;6.70;40.75;101217.50;1807071;78;21223;-73
2022/05/05 00:29:59;;;;;;;3.87;2.00;;;;;;;6.67;40.87;101225.08;1807556;79;20974;-73
2022/05/05 00:32:26;;;;;;;5.65;2.22;;;;;;;6.65;40.81;101227.97;1807025;78;21045;-73
2022/05/05 00:34:54;;;;;;;3.65;2.20;;;;;;;6.63;40.79;101225.22;1807567;78;21410;-74
2022/05/05 00:37:22;;;;;;;4.10;2.05;;;;;;;6.62;40.87;101227.59;1815156;78;20947;-74
2022/05/05 00:39:48;;;;;;;4.85;2.20;;;;;;;6.63;40.81;101226.03;1807567;78;21175;-74
2022/05/05 00:42:16;;;;;;;4.33;2.05;;;;;;;6.58;40.85;101231.99;1807316;78;21136;-72
2022/05/05 00:44:45;;;;;;;4.70;2.40;;;;;;;6.56;40.93;101232.70;1807595;79;20939;-72
2022/05/05 00:47:16;;;;;;;4.00;2.50;;;;;;;6.54;41.03;101233.94;1807283;78;21059;-73
2022/05/05 00:49:49;;;;;;;5.97;2.55;;;;;;;6.52;41.06;101230.70;1786594;79;20978;-73
2022/05/05 00:52:16;;;;;;;4.05;2.15;;;;;;;6.50;41.07;101233.55;1807284;79;21154;-73
2022/05/05 00:54:43;;;;;;;4.85;2.40;;;;;;;6.49;41.19;101240.42;1807164;78;21030;-73
2022/05/05 00:57:10;;;;;;;4.97;2.60;;;;;;;6.48;41.12;101238.77;1807937;79;21180;-73
2022/05/05 00:59:37;;;;;;;5.25;2.55;;;;;;;6.47;40.96;101244.59;1806954;78;21026;-73
2022/05/05 01:02:05;;;;;;;5.03;2.90;;;;;;;6.56;40.79;101245.17;1806645;79;21006;-73
2022/05/05 01:04:33;;;;;;;4.35;2.30;;;;;;;6.58;40.80;101247.08;1807754;79;21426;-73
2022/05/05 01:07:00;;;;;;;5.10;2.52;;;;;;;6.52;40.87;101246.11;1807172;78;21033;-73
2022/05/05 01:09:27;;;;;;;5.28;2.45;;;;;;;6.62;40.70;101242.99;1807855;79;21492;-73
2022/05/05 01:11:55;;;;;;;6.55;2.65;;;;;;;6.63;40.69;101250.44;1807400;79;21049;-73
2022/05/05 01:14:22;;;;;;;6.92;2.60;;;;;;;6.61;40.73;101247.98;1807574;79;21108;-73
2022/05/05 01:16:49;;;;;;;4.83;2.47;;;;;;;6.60;40.73;101253.00;1807487;79;21136;-73
2022/05/05 01:19:17;;;;;;;4.53;2.50;;;;;;;6.58;40.77;101255.04;1807505;79;21552;-72
2022/05/05 01:21:55;;;;;;;4.60;2.50;;;;;;;6.56;40.82;101249.15;1807194;78;21545;-74
2022/05/05 01:28:10;;;;;;;4.35;2.40;;;;;;;6.54;40.90;101251.19;1807512;78;21034;-74
2022/05/05 01:29:38;;;;;;;4.15;2.20;;;;;;;6.49;41.01;101258.47;1772532;80;21115;-74
2022/05/05 01:32:05;;;;;;;5.40;2.40;;;;;;;6.46;41.00;101262.07;1798830;79;21502;-73
2022/05/05 01:34:32;;;;;;;4.55;2.52;;;;;;;6.41;41.08;101257.37;1799571;79;21477;-73
2022/05/05 01:37:00;;;;;;;6.08;2.52;;;;;;;6.40;41.17;101257.61;1798802;79;21034;-73
2022/05/05 01:39:27;;;;;;;5.65;2.77;;;;;;;6.38;41.25;101257.80;1798880;79;21528;-72
2022/05/05 01:41:54;;;;;;;5.37;2.60;;;;;;;6.36;41.24;101259.88;1782306;79;22059;-73
2022/05/05 01:44:21;;;;;;;4.75;2.55;;;;;;;6.37;41.32;101256.70;1799061;79;20999;-73
2022/05/05 01:46:49;;;;;;;5.65;2.42;;;;;;;6.34;41.39;101252.11;1799224;79;20990;-73
2022/05/05 01:49:19;;;;;;;4.30;2.05;;;;;;;6.32;41.47;101260.81;1798500;79;21148;-73
2022/05/05 01:51:47;;;;;;;3.92;2.00;;;;;;;6.27;41.54;101259.29;1799343;79;21077;-73
2022/05/05 01:54:14;;;;;;;4.40;2.20;;;;;;;6.26;41.59;101261.65;1799594;79;21310;-73
2022/05/05 01:56:45;;;;;;;3.65;2.00;;;;;;;6.14;41.83;101259.86;1799396;79;20975;-73
2022/05/05 01:59:12;;;;;;;3.72;1.82;;;;;;;6.05;42.06;101264.58;1798806;79;21066;-73
2022/05/05 02:01:39;;;;;;;6.00;2.17;;;;;;;6.01;42.19;101273.46;1798603;79;21010;-73
2022/05/05 02:04:06;;;;;;;6.47;2.33;;;;;;;5.99;42.32;101277.34;1798955;79;21006;-74
2022/05/05 02:06:32;;;;;;;4.83;2.10;;;;;;;5.98;42.44;101281.02;1798046;79;21751;-73
2022/05/05 02:08:59;;;;;;;4.95;1.67;;;;;;;5.95;42.49;101284.09;1801093;79;21514;-72
2022/05/05 02:11:27;;;;;;;4.60;2.10;;;;;;;5.92;42.67;101289.26;1800552;79;21124;-72
2022/05/05 02:13:55;;;;;;;4.70;2.10;;;;;;;5.90;42.78;101290.52;1799131;79;20939;-73
2022/05/05 02:16:24;;;;;;;4.42;1.90;;;;;;;5.86;42.86;101282.97;1799401;79;20951;-72
2022/05/05 02:18:51;;;;;;;4.50;2.37;;;;;;;5.83;42.96;101287.36;1799235;79;21104;-73
2022/05/05 02:21:19;;;;;;;5.00;2.35;;;;;;;5.81;43.17;101294.70;1799221;79;20998;-73
2022/05/05 02:23:46;;;;;;;5.78;2.40;;;;;;;5.78;43.38;101295.63;1799241;79;20979;-72
2022/05/05 02:26:13;;;;;;;4.95;2.00;;;;;;;5.74;43.36;101297.87;1798905;79;21042;-73
2022/05/05 02:28:40;;;;;;;5.80;2.95;;;;;;;5.73;43.55;101298.91;1799634;79;21042;-73
2022/05/05 02:31:07;;;;;;;3.58;2.00;;;;;;;5.70;43.63;101299.31;1799108;79;21217;-73
2022/05/05 02:33:34;;;;;;;5.00;2.20;;;;;;;5.76;43.63;101301.14;1798376;79;21537;-73
2022/05/05 02:38:47;;;;;;;5.65;2.47;;;;;;;5.84;43.56;101302.75;1799400;79;21533;-73
2022/05/05 02:41:14;;;;;;;6.20;2.27;;;;;;;5.71;43.87;101308.89;1799442;79;20985;-73
2022/05/05 02:43:41;;;;;;;4.67;2.52;;;;;;;5.68;43.92;101313.78;1799620;78;21089;-74
2022/05/05 02:46:09;;;;;;;4.05;2.10;;;;;;;5.68;44.04;101315.92;1798836;79;21458;-73
2022/05/05 02:48:37;;;;;;;4.60;2.30;;;;;;;5.68;44.20;101313.27;1799203;79;21513;-73
2022/05/05 02:51:04;;;;;;;4.35;1.90;;;;;;;5.69;44.14;101317.55;1799447;79;21041;-73
2022/05/05 02:56:17;;;;;;;4.05;2.08;;;;;;;5.71;44.36;101322.66;1799377;79;21074;-74
2022/05/05 02:58:44;;;;;;;6.53;3.00;;;;;;;5.71;44.47;101326.11;1799502;79;20923;-73
2022/05/05 03:01:11;;;;;;;6.95;2.70;;;;;;;5.73;44.51;101329.39;1799598;79;21482;-73
2022/05/05 03:03:39;;;;;;;5.30;2.58;;;;;;;5.74;44.60;101332.84;1799233;79;21077;-74
2022/05/05 03:06:06;;;;;;;5.95;2.60;;;;;;;5.77;44.52;101331.92;1799376;79;21010;-74
2022/05/05 03:08:33;;;;;;;4.83;2.55;;;;;;;5.79;44.53;101333.03;1799055;79;21085;-72
2022/05/05 03:11:01;;;;;;;5.33;2.65;;;;;;;5.83;44.56;101343.03;1799242;78;20923;-73
2022/05/05 03:13:28;;;;;;;8.33;3.10;;;;;;;5.96;44.34;101339.58;1799378;79;21046;-73
2022/05/05 03:15:55;;;;;;;5.92;3.10;;;;;;;5.97;44.28;101335.90;1799418;79;20967;-73
2022/05/05 03:18:22;;;;;;;5.80;2.58;;;;;;;6.01;44.59;101338.95;1799387;79;21430;-73
2022/05/05 03:20:49;;;;;;;5.72;3.02;;;;;;;6.10;44.38;101343.02;1799381;79;21822;-74
2022/05/05 03:23:17;;;;;;;5.10;2.42;;;;;;;6.16;44.34;101347.48;1798843;79;21026;-73
2022/05/05 03:25:43;;;;;;;5.37;2.58;;;;;;;6.22;44.00;101351.97;1799514;79;21022;-74
2022/05/05 03:28:11;;;;;;;6.97;2.80;;;;;;;6.26;44.17;101351.84;1798602;79;20939;-73
2022/05/05 03:30:41;;;;;;;5.92;2.70;;;;;;;6.30;43.82;101350.41;1799440;79;21200;-73
2022/05/05 03:33:08;;;;;;;5.67;2.90;;;;;;;6.24;44.30;101355.73;1799417;79;21231;-74
2022/05/05 03:35:35;;;;;;;6.08;2.70;;;;;;;6.27;44.12;101356.64;1799170;79;21509;-71
2022/05/05 03:38:02;;;;;;;5.03;2.47;;;;;;;6.34;44.00;101359.56;1798556;79;21105;-73
2022/05/05 03:40:29;;;;;;;4.80;2.60;;;;;;;6.38;44.04;101367.11;1799562;79;20994;-73
2022/05/05 03:42:56;;;;;;;4.55;2.47;;;;;;;6.43;43.97;101366.80;1799176;79;21037;-74
2022/05/05 03:45:22;;;;;;;5.37;2.40;;;;;;;6.61;43.73;101378.05;1799757;79;21103;-74
2022/05/05 03:47:50;;;;;;;5.37;2.40;;;;;;;6.58;44.09;101378.47;1799407;79;20939;-73
2022/05/05 03:50:17;;;;;;;6.00;2.65;;;;;;;6.65;44.01;101383.26;1799407;79;21022;-74
2022/05/05 03:52:44;;;;;;;4.42;2.50;;;;;;;6.73;43.52;101380.35;1799241;79;21106;-74
2022/05/05 03:55:11;;;;;;;4.83;2.20;;;;;;;6.73;43.51;101384.34;1799411;79;21505;-73
2022/05/05 03:57:39;;;;;;;4.50;2.52;;;;;;;6.75;43.81;101386.28;1799114;79;21616;-73
2022/05/05 04:00:08;;;;;;;5.03;2.65;;;;;;;6.79;43.74;101390.66;1799650;79;21105;-73
2022/05/05 04:02:42;;;;;;;7.45;3.17;;;;;;;6.83;43.58;101394.50;1799233;79;21513;-73
2022/05/05 04:05:09;;;;;;;4.03;2.37;;;;;;;6.91;43.19;101387.64;1799711;79;21786;-73
2022/05/05 04:07:38;;;;;;;4.20;2.10;;;;;;;6.95;43.49;101388.03;1799070;79;20967;-73
2022/05/05 04:10:07;;;;;;;3.90;2.22;;;;;;;7.00;43.52;101386.86;1799345;79;22061;-73
2022/05/05 04:12:34;;;;;;;6.20;2.25;;;;;;;7.08;43.29;101401.23;1799366;79;20951;-73
2022/05/05 04:15:01;;;;;;;4.75;2.52;;;;;;;7.20;43.12;101396.05;1799632;79;20947;-74
2022/05/05 04:17:34;;;;;;;4.95;2.47;;;;;;;7.36;42.63;101402.70;1798950;79;20983;-71
2022/05/05 04:20:05;;;;;;;6.00;2.92;;;;;;;7.44;42.82;101405.11;1799891;79;21033;-72
2022/05/05 04:22:33;;;;;;;7.80;2.52;;;;;;;7.51;42.87;101407.20;1799833;79;21193;-74
2022/05/05 04:25:00;;;;;;;6.67;2.12;;;;;;;7.58;42.54;101407.96;1799631;78;20987;-74
2022/05/05 04:27:27;;;;;;;3.67;2.02;;;;;;;7.67;42.33;101401.88;1798696;78;21024;-73
2022/05/05 04:29:54;;;;;;;4.00;2.00;;;;;;;7.76;42.46;101407.20;1782258;79;21485;-74
2022/05/05 04:32:21;;;;;;;4.50;2.20;;;;;;;7.78;42.53;101408.33;1799324;79;21037;-74
2022/05/05 04:34:53;;;;;;;6.20;2.40;;;;;;;7.85;42.43;101404.56;1799007;79;22052;-73
2022/05/05 04:37:21;;;;;;;4.10;1.87;;;;;;;7.95;42.00;101406.22;1799047;79;20979;-73
2022/05/05 04:39:48;;;;;;;4.15;1.90;;;;;;;8.10;41.92;101407.22;1798943;79;21042;-72
2022/05/05 04:42:18;;;;;;;3.92;2.08;;;;;;;8.19;40.99;101397.08;1799520;79;21026;-74
2022/05/05 04:44:45;;;;;;;4.58;2.17;;;;;;;8.21;41.19;101409.14;1799242;79;20975;-73
2022/05/05 04:47:12;;;;;;;3.62;1.90;;;;;;;8.29;41.21;101416.54;1799175;79;21534;-73
2022/05/05 04:49:39;;;;;;;3.75;1.90;;;;;;;8.32;40.70;101408.11;1799586;79;21485;-74
2022/05/05 04:52:06;;;;;;;3.87;1.90;;;;;;;8.36;41.01;101410.66;1798912;79;20959;-73
2022/05/05 04:54:33;;;;;;;4.25;2.10;;;;;;;8.44;41.30;101417.03;1799251;79;20943;-74
2022/05/05 04:57:01;;;;;;;3.90;1.85;;;;;;;8.55;40.70;101412.29;1799661;79;20999;-73
2022/05/05 04:59:29;;;;;;;4.17;1.80;;;;;;;8.61;40.81;101415.92;1799275;79;21894;-73
2022/05/05 05:01:56;;;;;;;4.90;2.02;;;;;;;8.72;40.94;101411.20;1799346;79;20993;-73
2022/05/05 05:04:23;;;;;;;3.95;1.80;;;;;;;8.84;40.95;101424.03;1772178;81;21012;-73
2022/05/05 05:06:50;;;;;;;5.00;1.87;;;;;;;8.94;40.44;101424.84;1804392;78;21041;-75
2022/05/05 05:09:18;;;;;;;3.58;1.80;;;;;;;8.99;40.30;101422.33;1785217;79;21047;-72
2022/05/05 05:11:45;;;;;;;5.25;2.10;;;;;;;9.08;40.21;101426.31;1798325;78;21283;-73
2022/05/05 05:14:12;;;;;;;3.98;1.65;;;;;;;9.13;39.57;101430.95;1775717;79;21022;-73
2022/05/05 05:16:39;;;;;;;3.62;2.05;;;;;;;9.20;39.89;101428.20;1785269;80;21117;-73
2022/05/05 05:19:07;;;;;;;3.87;1.80;;;;;;;9.30;39.98;101433.80;1796816;79;21042;-74
2022/05/05 05:21:35;;;;;;;3.50;1.60;;;;;;;9.39;39.25;101436.44;1804958;78;21049;-73
2022/05/05 05:24:03;;;;;;;3.90;1.72;;;;;;;9.50;39.38;101438.31;1805026;78;21112;-73
2022/05/05 05:26:30;;;;;;;2.58;1.45;;;;;;;9.61;38.57;101436.73;1804265;78;21046;-74
2022/05/05 05:28:57;;;;;;;2.70;1.50;;;;;;;9.73;38.83;101442.08;1804488;78;21010;-74
2022/05/05 05:31:24;;;;;;;4.17;1.60;;;;;;;9.86;38.16;101436.53;1787582;79;21005;-74
2022/05/05 05:33:51;;;;;;;3.27;1.50;;;;;;;9.98;37.97;101443.23;1805419;78;20993;-73
2022/05/05 05:36:22;;;;;;;2.90;1.50;;;;;;;10.05;37.62;101446.59;1796186;79;21200;-73
2022/05/05 05:38:47;;;;;;;3.25;1.50;;;;;;;10.16;37.50;101448.97;1772438;79;21053;-74
2022/05/05 05:41:14;;;;;;;4.20;1.70;;;;;;;10.28;36.74;101438.61;1804759;78;21075;-74
2022/05/05 05:43:41;;;;;;;3.35;1.60;;;;;;;10.36;36.94;101445.97;1797056;79;21002;-74
2022/05/05 05:46:09;;;;;;;4.97;1.72;;;;;;;10.45;36.76;101457.93;1805118;77;21607;-73
2022/05/05 05:48:38;;;;;;;3.60;1.42;;;;;;;10.54;36.52;101446.66;1796646;79;21150;-74
2022/05/05 05:51:06;;;;;;;2.33;1.30;;;;;;;10.58;36.17;101454.20;1804702;78;21030;-74
2022/05/05 05:53:33;;;;;;;2.67;1.60;;;;;;;10.59;36.01;101454.48;1797010;79;21002;-75
2022/05/05 05:56:01;;;;;;;2.52;1.32;;;;;;;10.64;35.64;101451.41;1804817;78;21026;-74
2022/05/05 05:58:28;;;;;;;3.30;1.70;;;;;;;10.73;36.60;101454.01;1795589;79;21133;-73
2022/05/05 06:00:57;;;;;;;3.30;1.60;;;;;;;10.88;36.20;101452.16;1805097;78;21953;-72
2022/05/05 06:06:11;;;;;;;4.78;1.75;;;;;;;11.04;35.57;101444.72;1804739;78;20969;-75
2022/05/05 06:08:39;;;;;;;3.02;1.50;;;;;;;11.13;35.44;101450.52;1784121;79;21006;-74
2022/05/05 06:11:07;;;;;;;3.37;1.65;;;;;;;11.20;34.71;101453.05;1796481;79;21081;-73
2022/05/05 06:13:34;;;;;;;3.90;1.62;;;;;;;11.15;34.90;101445.72;1804905;78;21613;-73
2022/05/05 06:16:01;;;;;;;2.62;1.52;;;;;;;11.26;35.11;101448.08;1805390;78;21616;-73
2022/05/05 06:18:28;;;;;;;3.33;1.70;;;;;;;11.41;34.90;101457.70;1805041;78;21076;-74
2022/05/05 06:20:55;;;;;;;3.12;1.62;;;;;;;11.57;35.04;101456.64;1755594;81;20954;-75
2022/05/05 06:23:22;;;;;;;3.75;1.65;;;;;;;11.72;34.35;101457.72;1804525;78;21045;-73
2022/05/05 06:25:51;;;;;;;2.75;1.40;;;;;;;11.87;34.47;101451.02;1805120;78;21156;-73
2022/05/05 06:28:18;;;;;;;3.95;1.55;;;;;;;12.03;32.91;101454.21;1805244;78;21037;-74
2022/05/05 06:30:45;;;;;;;3.98;1.70;;;;;;;11.97;32.83;101460.54;1797202;79;21086;-73
2022/05/05 06:33:12;;;;;;;3.20;1.72;;;;;;;11.94;33.09;101453.83;1805701;79;20962;-72
2022/05/05 06:35:39;;;;;;;3.40;1.45;;;;;;;11.88;32.77;101460.16;1797209;78;20943;-73
2022/05/05 06:38:06;;;;;;;3.02;1.77;;;;;;;11.84;32.68;101460.33;1805612;78;21191;-72
2022/05/05 06:40:34;;;;;;;3.27;1.40;;;;;;;11.93;33.27;101462.89;1797172;79;20948;-73
2022/05/05 06:43:03;;;;;;;3.60;1.40;;;;;;;11.95;33.28;101459.98;1804082;78;21042;-73
2022/05/05 06:45:30;;;;;;;3.20;1.42;;;;;;;12.19;32.25;101458.74;1797033;79;21035;-74
2022/05/05 06:47:58;;;;;;;3.62;1.55;;;;;;;12.22;32.65;101467.36;1805101;78;21033;-74
2022/05/05 06:50:26;;;;;;;3.90;1.40;;;;;;;12.37;32.56;101468.39;1796143;79;21241;-74
2022/05/05 06:52:53;;;;;;;3.47;1.60;;;;;;;12.52;32.28;101460.28;1804627;78;20935;-73
2022/05/05 06:55:24;;;;;;;2.20;1.30;;;;;;;12.66;32.03;101464.20;1796976;79;20983;-73
2022/05/05 06:57:51;;;;;;;2.47;1.30;;;;;;;12.85;29.98;101469.55;1804636;78;21054;-74
2022/05/05 07:00:19;;;;;;;2.70;1.25;;;;;;;12.92;30.15;101461.31;1797320;79;21014;-73
2022/05/05 07:02:49;;;;;;;3.45;1.50;;;;;;;13.01;31.08;101466.52;1804563;78;21146;-73
2022/05/05 07:05:23;;;;;;;2.85;1.40;;;;;;;13.12;28.83;101467.44;1807651;78;21043;-72
2022/05/05 07:07:51;;;;;;;4.53;1.30;;;;;;;13.21;29.70;101460.56;1808251;78;20942;-73
2022/05/05 07:13:04;;;;;;;2.95;1.52;;;;;;;13.54;29.04;101466.83;1797247;79;20983;-73
2022/05/05 07:15:32;;;;;;;3.92;1.70;;;;;;;13.59;28.80;101473.06;1804818;78;21311;-73
2022/05/05 07:18:00;;;;;;;4.65;2.17;;;;;;;13.61;29.06;101472.80;1797294;79;21050;-74
2022/05/05 07:20:27;;;;;;;4.53;1.80;;;;;;;13.61;28.34;101478.16;1805749;78;20959;-73
2022/05/05 07:22:56;;;;;;;3.47;1.67;;;;;;;13.64;28.10;101479.00;1797019;79;21047;-73
2022/05/05 07:25:23;;;;;;;4.12;2.00;;;;;;;13.65;27.95;101477.92;1804349;78;21093;-71
2022/05/05 07:27:50;;;;;;;3.65;1.57;;;;;;;13.59;27.57;101485.14;1791886;79;21383;-73
2022/05/05 07:30:19;;;;;;;3.60;1.65;;;;;;;13.56;27.91;101485.65;1804875;78;21176;-73
2022/05/05 07:32:46;;;;;;;3.10;1.60;;;;;;;13.60;27.58;101484.07;1797031;79;20955;-75
2022/05/05 07:35:12;;;;;;;4.62;1.67;;;;;;;13.65;27.60;101480.61;1804716;78;21077;-73
2022/05/05 07:37:39;;;;;;;3.25;1.57;;;;;;;13.70;27.51;101487.37;1797338;79;21070;-74
2022/05/05 07:40:07;;;;;;;3.85;2.05;;;;;;;13.75;27.31;101487.41;1804956;78;21619;-74
2022/05/05 07:42:37;;;;;;;3.12;1.67;;;;;;;13.73;27.50;101486.88;1796675;79;21039;-74
2022/05/05 07:45:05;;;;;;;3.15;1.50;;;;;;;13.66;27.05;101486.28;1805160;78;20939;-74
2022/05/05 07:47:33;;;;;;;2.95;1.47;;;;;;;13.59;27.19;101485.14;1796594;79;21026;-73
2022/05/05 07:50:02;;;;;;;2.80;1.63;;;;;;;13.60;27.77;101476.55;1805085;78;20990;-73
2022/05/05 07:52:29;;;;;;;3.02;1.50;;;;;;;13.63;27.30;101474.70;1780538;79;21243;-72
2022/05/05 07:54:56;;;;;;;3.25;1.72;;;;;;;13.69;27.34;101476.38;1804770;78;20998;-73
2022/05/05 07:57:23;;;;;;;3.83;1.40;;;;;;;13.72;27.29;101474.52;1797089;79;21093;-73
2022/05/05 07:59:50;;;;;;;2.93;1.50;;;;;;;13.68;27.19;101469.90;1804462;78;21129;-73
2022/05/05 08:02:17;;;;;;;3.27;1.60;;;;;;;13.73;27.59;101479.36;1797157;79;21770;-73
2022/05/05 08:04:44;;;;;;;3.40;2.00;;;;;;;13.76;27.07;101471.59;1804946;78;21788;-73
2022/05/05 08:07:12;;;;;;;3.40;1.27;;;;;;;13.69;27.24;101479.56;1797015;79;21366;-72
2022/05/05 08:09:39;;;;;;;3.45;1.50;;;;;;;13.67;27.46;101465.07;1804750;78;20994;-73
2022/05/05 08:12:07;;;;;;;3.00;1.30;;;;;;;13.77;27.20;101473.75;1796995;79;21580;-73
2022/05/05 08:14:34;;;;;;;3.33;1.60;;;;;;;13.88;27.22;101472.75;1803225;78;21622;-73
2022/05/05 08:17:01;;;;;;;2.23;1.20;;;;;;;14.01;27.30;101466.95;1798409;79;21530;-73
2022/05/05 08:19:28;;;;;;;4.37;1.53;;;;;;;14.08;27.99;101470.25;1807021;78;21256;-72
2022/05/05 08:21:56;;;;;;;3.07;1.43;;;;;;;14.23;27.86;101471.41;1799188;79;21081;-72
2022/05/05 08:29:53;;;;;;;2.43;1.50;;;;;;;14.27;26.21;101471.95;1805065;78;21963;-73
2022/05/05 08:32:20;;;;;;;3.23;1.50;;;;;;;14.21;26.38;101478.91;1796353;78;21753;-72
2022/05/05 08:34:48;;;;;;;3.03;1.40;;;;;;;14.24;27.11;101470.33;1805046;78;21151;-74
2022/05/05 08:37:15;;;;;;;2.90;1.17;;;;;;;14.34;27.27;101466.89;1796972;79;21313;-73
2022/05/05 08:39:42;;;;;;;2.77;1.30;;;;;;;14.44;27.70;101465.61;1805065;78;21453;-73
2022/05/05 08:42:09;;;;;;;3.13;1.40;;;;;;;14.53;26.72;101463.55;1796936;79;21129;-74
2022/05/05 08:44:36;;;;;;;2.13;1.20;;;;;;;14.58;26.86;101461.95;1805288;78;21285;-74
2022/05/05 08:47:04;;;;;;;3.07;1.47;;;;;;;14.67;26.98;101455.00;1796385;79;21277;-73
2022/05/05 08:49:31;;;;;;;5.30;1.60;;;;;;;14.78;26.10;101449.42;1805152;78;21327;-73
2022/05/05 08:52:19;;;;;;;3.40;1.50;;;;;;;14.77;25.90;101457.22;1772304;80;21363;-74
2022/05/05 08:54:46;;;;;;;3.27;1.40;;;;;;;14.71;26.23;101451.55;1804262;78;21547;-73
2022/05/05 08:57:15;;;;;;;2.83;1.30;;;;;;;14.82;26.37;101458.31;1804174;79;21197;-73
2022/05/05 08:59:43;;;;;;;3.47;1.53;;;;;;;14.95;26.24;101452.44;1804487;78;21240;-75
2022/05/05 09:02:10;;;;;;;2.20;1.30;;;;;;;15.07;26.63;101455.71;1804466;78;21110;-74
2022/05/05 09:04:37;;;;;;;5.33;1.50;;;;;;;15.09;25.18;101469.69;1804773;78;21367;-74
2022/05/05 09:07:04;;;;;;;3.83;1.30;;;;;;;15.02;25.54;101463.75;1796773;79;21220;-73
2022/05/05 09:09:35;;;;;;;2.23;1.23;;;;;;;15.10;26.16;101465.91;1804989;78;21105;-72
2022/05/05 09:12:13;;;;;;;1.98;1.10;;;;;;;15.19;25.65;101452.77;1797315;79;21294;-73
2022/05/05 09:14:52;;;;;;;2.33;1.17;;;;;;;15.33;25.15;101453.86;1804652;78;21572;-74
2022/05/05 09:17:23;;;;;;;3.63;1.57;;;;;;;15.31;24.65;101452.53;1797467;79;21274;-74
2022/05/05 09:19:53;;;;;;;2.73;1.20;;;;;;;15.19;24.51;101456.80;1805232;78;21172;-74
2022/05/05 09:22:25;;;;;;;2.03;1.10;;;;;;;15.10;24.73;101456.50;1796671;78;21213;-74
2022/05/05 09:24:56;;;;;;;;;;;;;;;15.18;24.42;101457.89;1806851;78;21834;-74
2022/05/05 09:27:33;;;;;;;3.10;1.30;;;;;;;15.24;25.13;101454.13;1797307;79;20470;-73
2022/05/05 09:30:12;;;;;;;3.13;1.30;;;;;;;15.40;25.73;101449.05;1788455;78;21322;-74
2022/05/05 09:32:45;;;;;;;2.47;1.20;;;;;;;15.54;24.27;101454.71;1784342;79;21822;-73
2022/05/05 09:35:18;;;;;;;2.60;1.23;;;;;;;15.51;23.30;101454.44;1784012;79;21271;-74
2022/05/05 09:37:48;;;;;;;2.80;1.30;;;;;;;15.42;24.35;101451.45;1784758;80;21253;-73
2022/05/05 09:40:20;;;;;;;1.90;1.10;;;;;;;15.45;23.80;101453.63;1783857;80;21757;-71
2022/05/05 09:42:50;;;;;;;1.97;1.23;;;;;;;15.52;24.16;101454.16;1796818;78;21301;-74
2022/05/05 09:45:27;;;;;;;2.80;1.30;;;;;;;15.63;24.00;101457.66;1804915;78;21334;-73
2022/05/05 09:47:59;;;;;;;2.40;1.30;;;;;;;15.79;24.31;101447.73;1796796;79;21310;-73
2022/05/05 09:50:29;;;;;;;;;;;;;;;15.95;24.63;101451.49;1774801;79;21272;-73
2022/05/05 09:58:37;;;;;;;5.10;1.30;;;;;;;16.16;24.21;101443.41;1796800;79;21170;-74
2022/05/05 10:01:08;;;;;;;2.58;1.30;;;;;;;16.30;24.58;101444.44;1796851;79;21169;-73
2022/05/05 10:04:06;;;;;;;3.50;1.37;;;;;;;16.48;24.15;101440.33;1797103;79;20948;-73
2022/05/05 10:06:32;;;;;;;3.33;1.43;;;;;;;16.63;23.56;101436.79;1796432;79;21198;-73
2022/05/05 10:09:14;;;;;;;3.03;1.10;;;;;;;16.77;23.47;101439.72;1780955;79;21195;-74
2022/05/05 10:11:42;;;;;;;2.10;1.15;;;;;;;16.85;23.86;101431.06;1804500;78;21228;-72
2022/05/05 10:14:21;;;;;;;2.23;1.13;;;;;;;16.76;21.48;101431.38;1805054;78;21476;-73
2022/05/05 10:16:49;;;;;;;3.40;1.30;;;;;;;16.76;21.48;101431.38;1806480;79;21875;-75
2022/05/05 10:19:17;;;;;;;2.47;1.30;;;;;;;16.60;21.97;101438.14;1806549;79;21468;-73
2022/05/05 10:21:58;;;;;;;2.83;1.20;;;;;;;16.58;21.89;101438.14;1772508;79;21861;-75
2022/05/05 10:24:31;;;;;;;3.45;1.17;;;;;;;16.56;21.79;101438.44;1805388;79;21233;-74
2022/05/05 10:27:01;;;;;;;2.17;1.30;;;;;;;16.54;22.12;101432.50;1804233;79;21033;-73
2022/05/05 10:29:41;;;;;;;3.47;1.50;;;;;;;16.84;22.44;101422.69;1804141;79;21432;-74
2022/05/05 10:32:19;;;;;;;5.03;1.40;;;;;;;16.84;22.44;101422.69;1804572;79;21327;-72
2022/05/05 10:35:13;;;;;;;2.17;1.10;;;;;;;16.96;22.04;101421.02;1804824;78;21040;-74
2022/05/05 10:37:40;;;;;;;2.43;1.40;;;;;;;16.96;22.04;101421.02;1789865;79;21336;-73
2022/05/05 10:40:12;;;;;;;2.90;1.23;;;;;;;16.84;22.59;101422.69;1804506;78;22116;-75
2022/05/05 10:42:44;;;;;;;2.77;1.23;;;;;;;17.06;22.21;101419.06;1804617;79;21353;-73
2022/05/05 10:45:30;;;;;;;3.07;1.10;;;;;;;17.06;22.21;101419.06;1805492;78;21541;-74
2022/05/05 10:48:06;;;;;;;1.77;1.10;;;;;;;17.01;22.20;101423.67;1787874;79;21342;-73
2022/05/05 10:50:49;;;;;;;2.20;1.20;;;;;;;17.01;22.20;101423.67;1804526;78;21613;-73
2022/05/05 10:53:40;;;;;;;1.90;1.10;;;;;;;17.08;23.70;101421.49;1803863;79;21484;-73
2022/05/05 10:56:30;;;;;;;2.77;1.20;;;;;;;17.27;23.68;101417.02;1804665;78;21927;-73
2022/05/05 10:59:07;;;;;;;2.27;1.30;;;;;;;17.48;22.52;101422.30;1804632;79;21390;-73
2022/05/05 11:01:50;;;;;;;2.70;1.20;;;;;;;17.48;21.26;101419.59;1789077;79;21045;-73
2022/05/05 11:04:23;;;;;;;1.62;1.00;;;;;;;17.39;21.50;101411.83;1804986;78;21458;-73
2022/05/05 11:07:18;;;;;;;2.60;1.10;;;;;;;17.38;22.76;101415.08;1804179;79;21121;-73
2022/05/05 11:09:46;;;;;;;1.70;1.00;;;;;;;17.38;22.76;101415.08;1801654;79;21440;-73
2022/05/05 11:12:21;;;;;;;4.43;1.40;;;;;;;17.52;21.92;101411.19;1804732;78;21470;-73
2022/05/05 11:23:50;;;;;;;2.33;1.20;;;;;;;17.50;21.44;101406.59;1804470;79;21101;-72
2022/05/05 11:26:21;;;;;;;3.23;1.10;;;;;;;17.50;21.08;101407.40;1804257;78;21550;-74
2022/05/05 11:28:49;;;;;;;3.07;1.30;;;;;;;17.45;21.89;101401.25;1804876;79;21373;-73
2022/05/05 11:31:19;;;;;;;2.93;1.70;;;;;;;17.45;21.89;101401.25;1805984;78;21577;-73
2022/05/05 11:33:58;;;;;;;2.60;1.30;;;;;;;17.48;22.11;101391.23;1773748;79;21628;-74
2022/05/05 11:36:30;;;;;;;3.03;1.30;;;;;;;17.51;20.88;101392.03;1804748;78;21561;-73
2022/05/05 11:38:57;;;;;;;3.10;1.10;;;;;;;17.50;22.29;101389.04;1804054;79;21465;-72
2022/05/05 11:41:26;;;;;;;2.73;1.20;;;;;;;17.50;22.29;101389.04;1804228;78;21976;-74
2022/05/05 11:46:41;;;;;;;2.00;1.20;;;;;;;17.74;21.02;101386.42;1790107;79;21521;-73
2022/05/05 11:49:10;;;;;;;2.03;1.17;;;;;;;17.78;20.80;101384.78;1804701;79;21548;-74
2022/05/05 11:51:37;;;;;;;1.83;1.10;;;;;;;17.78;20.80;101384.78;1804149;79;21461;-74
2022/05/05 11:54:10;;;;;;;2.83;1.17;;;;;;;17.68;20.55;101382.15;1804722;79;22096;-73
2022/05/05 11:56:47;;;;;;;;;;;;;;;17.68;20.55;101382.15;1804811;78;21648;-74
2022/05/05 12:02:19;;;;;;;3.13;1.30;;;;;;;17.69;21.65;101378.34;1804675;78;21875;-73
2022/05/05 12:04:56;;;;;;;4.07;1.33;;;;;;;18.05;20.61;101376.13;1804950;78;22098;-73
2022/05/05 12:07:25;;;;;;;2.80;1.20;;;;;;;18.11;20.42;101370.92;1767919;79;22070;-73
2022/05/05 12:09:55;;;;;;;2.50;1.30;;;;;;;18.11;20.42;101370.92;1799154;79;21659;-73
2022/05/05 12:12:25;;;;;;;3.47;1.23;;;;;;;18.05;20.16;101371.52;1804332;79;22074;-73
2022/05/05 12:14:58;;;;;;;2.23;1.30;;;;;;;17.96;20.44;101377.84;1804859;79;21623;-73
2022/05/05 12:17:35;;;;;;;4.37;1.60;;;;;;;17.90;20.58;101374.92;1804272;79;21671;-74
2022/05/05 12:20:07;;;;;;;3.77;1.37;;;;;;;17.84;20.17;101369.33;1804926;78;21677;-74